createdAt,value
2022-10-01T00:01:29.214Z,12.35
2022-10-01T00:03:57.149Z,12.37
2022-10-01T00:06:25.219Z,12.37
2022-10-01T00:08:53.001Z,12.31
2022-10-01T00:11:26.099Z,12.30
2022-10-01T00:13:54.503Z,12.30
2022-10-01T00:16:26.448Z,12.25
2022-10-01T00:18:54.838Z,12.26
2022-10-01T00:21:26.564Z,12.29
2022-10-01T00:24:00.412Z,12.28
2022-10-01T00:26:31.235Z,12.29
2022-10-01T00:29:02.062Z,12.33
2022-10-01T00:31:30.472Z,12.36
2022-10-01T00:34:00.677Z,12.32
2022-10-01T00:36:29.039Z,12.23
2022-10-01T00:39:00.787Z,12.18
2022-10-01T00:41:32.502Z,12.24
2022-10-01T00:44:03.674Z,12.30
2022-10-01T00:46:46.024Z,12.37
2022-10-01T00:49:20.895Z,12.39
2022-10-01T00:51:54.546Z,12.36
2022-10-01T00:54:25.172Z,12.31
2022-10-01T00:56:57.152Z,12.26
2022-10-01T00:59:26.367Z,12.24
2022-10-01T01:01:54.283Z,12.21
2022-10-01T01:04:23.013Z,12.20
2022-10-01T01:06:58.453Z,12.15
2022-10-01T01:09:36.005Z,12.06
2022-10-01T01:12:06.885Z,12.02
2022-10-01T01:15:12.946Z,12.09
2022-10-01T01:18:17.263Z,12.15
2022-10-01T01:21:08.676Z,12.15
2022-10-01T01:24:12.444Z,12.18
2022-10-01T01:27:06.396Z,12.23
2022-10-01T01:29:53.096Z,12.31
2022-10-01T01:32:30.809Z,12.37
2022-10-01T01:35:02.393Z,12.39
2022-10-01T01:37:38.099Z,12.40
2022-10-01T01:40:11.783Z,12.39
2022-10-01T01:42:42.082Z,12.32
2022-10-01T01:45:16.034Z,12.30
2022-10-01T01:47:45.947Z,12.29
2022-10-01T01:50:15.869Z,12.22
2022-10-01T01:52:43.843Z,12.18
2022-10-01T01:55:12.328Z,12.16
2022-10-01T01:57:43.677Z,12.10
2022-10-01T02:00:14.416Z,12.06
2022-10-01T02:02:50.376Z,11.96
2022-10-01T02:05:23.458Z,11.92
2022-10-01T02:08:13.524Z,11.91
2022-10-01T02:10:41.304Z,11.93
2022-10-01T02:13:15.316Z,11.95
2022-10-01T02:15:55.399Z,11.93
2022-10-01T02:18:40.461Z,11.95
2022-10-01T02:21:31.981Z,12.03
2022-10-01T02:24:27.619Z,12.07
2022-10-01T02:26:57.665Z,12.10
2022-10-01T02:29:25.662Z,12.15
2022-10-01T02:31:56.301Z,12.19
2022-10-01T02:34:29.391Z,12.21
2022-10-01T02:37:01.139Z,12.23
2022-10-01T02:39:32.481Z,12.22
2022-10-01T02:42:02.086Z,12.21
2022-10-01T02:44:38.208Z,12.18
2022-10-01T02:47:11.865Z,12.12
2022-10-01T02:49:41.417Z,12.08
2022-10-01T02:52:17.318Z,12.09
2022-10-01T02:55:03.465Z,12.09
2022-10-01T02:57:33.026Z,12.08
2022-10-01T03:00:06.525Z,11.97
2022-10-01T03:02:34.961Z,11.88
2022-10-01T03:05:03.932Z,11.86
2022-10-01T03:07:35.673Z,11.80
2022-10-01T03:10:08.626Z,11.72
2022-10-01T03:12:37.741Z,11.70
2022-10-01T03:15:07.275Z,11.76
2022-10-01T03:17:37.291Z,11.84
2022-10-01T03:20:06.774Z,11.85
2022-10-01T03:22:34.719Z,11.80
2022-10-01T03:25:02.850Z,11.81
2022-10-01T03:27:30.730Z,11.84
2022-10-01T03:29:58.567Z,11.87
2022-10-01T03:32:26.441Z,11.86
2022-10-01T03:34:54.518Z,11.86
2022-10-01T03:37:22.472Z,11.89
2022-10-01T03:39:50.385Z,11.91
2022-10-01T03:42:18.235Z,11.90
2022-10-01T03:44:46.033Z,11.86
2022-10-01T03:47:14.384Z,11.84
2022-10-01T03:49:42.257Z,11.83
2022-10-01T03:52:10.130Z,11.84
2022-10-01T03:54:39.497Z,11.83
2022-10-01T03:57:07.351Z,11.73
2022-10-01T03:59:36.301Z,11.56
2022-10-01T04:02:04.206Z,11.46
2022-10-01T04:04:32.144Z,11.45
2022-10-01T04:07:00.002Z,11.42
2022-10-01T04:09:27.886Z,11.44
2022-10-01T04:11:56.176Z,11.41
2022-10-01T04:14:23.938Z,11.38
2022-10-01T04:16:52.707Z,11.28
2022-10-01T04:19:20.803Z,11.09
2022-10-01T04:21:48.936Z,10.95
2022-10-01T04:24:16.854Z,10.84
2022-10-01T04:26:44.722Z,10.79
2022-10-01T04:29:12.534Z,10.77
2022-10-01T04:31:40.434Z,10.82
2022-10-01T04:34:08.340Z,10.87
2022-10-01T04:36:36.088Z,10.85
2022-10-01T04:39:03.953Z,10.75
2022-10-01T04:41:32.402Z,10.66
2022-10-01T04:44:00.884Z,10.66
2022-10-01T04:46:30.538Z,10.66
2022-10-01T04:48:58.637Z,10.61
2022-10-01T04:51:26.475Z,10.57
2022-10-01T04:53:54.486Z,10.57
2022-10-01T04:56:22.372Z,10.57
2022-10-01T04:58:50.322Z,10.56
2022-10-01T05:01:18.238Z,10.50
2022-10-01T05:03:47.729Z,10.38
2022-10-01T05:06:15.502Z,10.28
2022-10-01T05:08:43.342Z,10.27
2022-10-01T05:11:11.328Z,10.32
2022-10-01T05:13:40.495Z,10.35
2022-10-01T05:16:08.679Z,10.35
2022-10-01T05:18:36.422Z,10.31
2022-10-01T05:21:05.990Z,10.23
2022-10-01T05:23:34.460Z,10.14
2022-10-01T05:26:04.383Z,10.10
2022-10-01T05:28:32.718Z,10.10
2022-10-01T05:31:01.891Z,10.13
2022-10-01T05:33:31.367Z,10.15
2022-10-01T05:35:59.239Z,10.13
2022-10-01T05:38:27.007Z,10.11
2022-10-01T05:40:54.778Z,10.13
2022-10-01T05:43:22.534Z,10.15
2022-10-01T05:45:51.340Z,10.16
2022-10-01T05:48:19.313Z,10.14
2022-10-01T05:50:47.200Z,10.07
2022-10-01T05:53:16.193Z,10.02
2022-10-01T05:55:44.254Z,10.00
2022-10-01T05:58:13.760Z,10.02
2022-10-01T06:00:43.193Z,10.07
2022-10-01T06:03:13.201Z,10.09
2022-10-01T06:05:44.521Z,10.10
2022-10-01T06:08:12.614Z,10.14
2022-10-01T06:10:41.609Z,10.22
2022-10-01T06:13:09.395Z,10.32
2022-10-01T06:15:39.108Z,10.47
2022-10-01T06:18:08.703Z,10.54
2022-10-01T06:20:37.597Z,10.59
2022-10-01T06:23:10.065Z,10.72
2022-10-01T06:25:40.071Z,10.81
2022-10-01T06:28:11.445Z,10.82
2022-10-01T06:30:40.134Z,10.77
2022-10-01T06:33:13.464Z,10.71
2022-10-01T06:35:49.795Z,10.78
2022-10-01T06:38:20.395Z,10.85
2022-10-01T06:40:53.315Z,10.96
2022-10-01T06:43:22.301Z,11.15
2022-10-01T06:45:50.334Z,11.25
2022-10-01T06:48:20.128Z,11.25
2022-10-01T06:50:50.219Z,11.23
2022-10-01T06:53:18.949Z,11.26
2022-10-01T06:55:46.890Z,11.34
2022-10-01T06:58:17.860Z,11.51
2022-10-01T07:00:46.099Z,11.71
2022-10-01T07:03:21.142Z,11.84
2022-10-01T07:05:50.021Z,11.86
2022-10-01T07:08:18.648Z,11.84
2022-10-01T07:10:46.604Z,11.95
2022-10-01T07:13:20.446Z,12.08
2022-10-01T07:15:48.180Z,12.04
2022-10-01T07:18:17.065Z,12.07
2022-10-01T07:20:44.836Z,12.19
2022-10-01T07:23:14.751Z,12.24
2022-10-01T07:25:44.136Z,12.20
2022-10-01T07:28:17.932Z,12.13
2022-10-01T07:30:58.221Z,12.06
2022-10-01T07:33:26.018Z,12.04
2022-10-01T07:35:54.235Z,12.04
2022-10-01T07:38:22.020Z,12.10
2022-10-01T07:40:54.814Z,12.16
2022-10-01T07:43:23.102Z,12.27
2022-10-01T07:45:55.302Z,12.41
2022-10-01T07:48:23.136Z,12.46
2022-10-01T07:50:51.215Z,12.46
2022-10-01T07:53:19.708Z,12.41
2022-10-01T07:55:48.101Z,12.45
2022-10-01T07:58:15.936Z,12.52
2022-10-01T08:00:43.729Z,12.68
2022-10-01T08:03:14.153Z,12.78
2022-10-01T08:05:43.477Z,12.96
2022-10-01T08:08:11.329Z,13.00
2022-10-01T08:10:39.488Z,13.00
2022-10-01T08:13:14.564Z,13.14
2022-10-01T08:15:45.194Z,13.15
2022-10-01T08:18:13.521Z,13.14
2022-10-01T08:20:41.352Z,13.25
2022-10-01T08:23:11.754Z,13.29
2022-10-01T08:25:40.882Z,13.33
2022-10-01T08:28:11.183Z,13.33
2022-10-01T08:30:40.850Z,13.28
2022-10-01T08:33:12.048Z,13.32
2022-10-01T08:35:40.844Z,13.34
2022-10-01T08:38:09.532Z,13.37
2022-10-01T08:41:24.888Z,13.39
2022-10-01T08:43:53.413Z,13.42
2022-10-01T08:46:26.940Z,13.51
2022-10-01T08:48:57.096Z,13.47
2022-10-01T08:51:31.678Z,13.41
2022-10-01T08:54:36.630Z,13.33
2022-10-01T08:57:12.073Z,13.25
2022-10-01T08:59:52.733Z,13.23
2022-10-01T09:02:25.616Z,13.15
2022-10-01T09:05:01.518Z,13.17
2022-10-01T09:07:54.146Z,13.15
2022-10-01T09:10:45.999Z,13.14
2022-10-01T09:13:53.302Z,13.14
2022-10-01T09:16:47.484Z,13.05
2022-10-01T09:19:21.158Z,12.98
2022-10-01T09:22:03.674Z,12.92
2022-10-01T09:24:44.923Z,12.94
2022-10-01T09:27:37.703Z,12.97
2022-10-01T09:30:07.934Z,12.88
2022-10-01T09:33:25.108Z,12.79
2022-10-01T09:36:06.049Z,12.76
2022-10-01T09:38:36.947Z,12.78
2022-10-01T09:41:05.129Z,12.75
2022-10-01T09:43:35.218Z,12.75
2022-10-01T09:46:07.208Z,12.76
2022-10-01T09:48:42.933Z,12.78
2022-10-01T09:51:13.045Z,12.83
2022-10-01T09:54:04.613Z,12.94
2022-10-01T09:56:42.601Z,13.29
2022-10-01T09:59:36.549Z,14.93
2022-10-01T10:02:15.559Z,15.51
2022-10-01T10:04:43.783Z,15.11
2022-10-01T10:07:18.984Z,14.83
2022-10-01T10:09:47.079Z,14.57
2022-10-01T10:12:31.984Z,14.39
2022-10-01T10:15:07.731Z,14.26
2022-10-01T10:17:38.212Z,14.13
2022-10-01T10:20:12.345Z,13.94
2022-10-01T10:22:40.094Z,13.77
2022-10-01T10:25:18.189Z,13.65
2022-10-01T10:27:55.508Z,13.54
2022-10-01T10:30:24.783Z,13.48
2022-10-01T10:33:04.716Z,13.39
2022-10-01T10:35:32.693Z,13.32
2022-10-01T10:38:02.413Z,13.31
2022-10-01T10:40:44.411Z,13.27
2022-10-01T10:43:25.802Z,13.23
2022-10-01T10:45:56.458Z,13.14
2022-10-01T10:48:32.372Z,13.02
2022-10-01T10:51:02.416Z,12.96
2022-10-01T10:53:44.038Z,12.94
2022-10-01T10:56:24.120Z,13.02
2022-10-01T10:58:53.849Z,13.14
2022-10-01T11:01:28.859Z,13.28
2022-10-01T11:03:59.916Z,13.44
2022-10-01T11:06:28.404Z,13.53
2022-10-01T11:09:10.696Z,13.57
2022-10-01T11:12:11.578Z,13.65
2022-10-01T11:14:59.267Z,13.71
2022-10-01T11:18:01.465Z,13.70
2022-10-01T11:20:36.943Z,13.70
2022-10-01T11:23:34.091Z,13.77
2022-10-01T11:26:28.453Z,13.78
2022-10-01T11:29:18.146Z,13.91
2022-10-01T11:31:57.897Z,14.18
2022-10-01T11:34:50.601Z,14.43
2022-10-01T11:37:42.167Z,14.45
2022-10-01T11:40:20.115Z,14.27
2022-10-01T11:42:51.066Z,14.16
2022-10-01T11:45:28.963Z,14.13
2022-10-01T11:48:06.295Z,14.29
2022-10-01T11:50:48.542Z,14.37
2022-10-01T11:53:25.098Z,14.39
2022-10-01T11:56:20.201Z,14.39
2022-10-01T11:58:56.877Z,14.35
2022-10-01T12:01:25.155Z,14.31
2022-10-01T12:03:53.038Z,14.32
2022-10-01T12:06:32.980Z,14.35
2022-10-01T12:09:40.551Z,14.42
2022-10-01T12:12:15.599Z,14.39
2022-10-01T12:14:51.794Z,14.39
2022-10-01T12:17:35.096Z,14.44
2022-10-01T12:20:09.136Z,14.49
2022-10-01T12:22:40.260Z,14.47
2022-10-01T12:25:14.258Z,14.34
2022-10-01T12:28:10.812Z,14.42
2022-10-01T12:31:12.594Z,14.53
2022-10-01T12:33:47.745Z,14.51
2022-10-01T12:36:29.740Z,14.59
2022-10-01T12:39:27.485Z,14.75
2022-10-01T12:42:37.213Z,14.82
2022-10-01T12:45:32.316Z,14.78
2022-10-01T12:48:10.726Z,14.70
2022-10-01T12:50:41.450Z,14.70
2022-10-01T12:53:37.319Z,14.67
2022-10-01T12:56:30.819Z,14.67
2022-10-01T12:59:14.041Z,14.64
2022-10-01T13:02:10.011Z,14.56
2022-10-01T13:05:17.248Z,14.50
2022-10-01T13:08:06.682Z,14.47
2022-10-01T13:10:54.406Z,14.49
2022-10-01T13:13:33.609Z,14.50
2022-10-01T13:16:23.362Z,14.45
2022-10-01T13:18:54.554Z,14.43
2022-10-01T13:21:52.816Z,14.45
2022-10-01T13:24:32.862Z,14.49
2022-10-01T13:27:18.612Z,14.41
2022-10-01T13:29:52.436Z,14.35
2022-10-01T13:32:53.391Z,14.32
2022-10-01T13:35:35.960Z,14.34
2022-10-01T13:38:29.344Z,14.34
2022-10-01T13:41:03.256Z,14.39
2022-10-01T13:43:34.212Z,14.42
2022-10-01T13:46:12.752Z,14.38
2022-10-01T13:48:48.266Z,14.29
2022-10-01T13:51:16.956Z,14.21
2022-10-01T13:53:45.109Z,14.19
2022-10-01T13:56:27.718Z,14.19
2022-10-01T13:58:55.557Z,14.20
2022-10-01T14:01:24.313Z,14.23
2022-10-01T14:04:05.350Z,14.27
2022-10-01T14:06:36.490Z,14.30
2022-10-01T14:09:31.586Z,14.33
2022-10-01T14:12:21.872Z,14.32
2022-10-01T14:15:15.435Z,14.29
2022-10-01T14:17:53.017Z,14.24
2022-10-01T14:20:24.773Z,14.18
2022-10-01T14:23:13.201Z,14.12
2022-10-01T14:26:03.398Z,14.07
2022-10-01T14:28:43.484Z,14.03
2022-10-01T14:31:32.915Z,14.04
2022-10-01T14:34:25.458Z,14.08
2022-10-01T14:36:54.930Z,14.05
2022-10-01T14:39:27.850Z,14.00
2022-10-01T14:41:57.653Z,14.00
2022-10-01T14:44:38.335Z,13.99
2022-10-01T14:47:27.965Z,13.99
2022-10-01T14:49:55.860Z,14.00
2022-10-01T14:52:28.242Z,13.99
2022-10-01T14:55:13.596Z,14.03
2022-10-01T14:57:45.679Z,14.05
2022-10-01T15:00:26.435Z,14.05
2022-10-01T15:03:06.205Z,13.99
2022-10-01T15:05:37.129Z,13.93
2022-10-01T15:08:22.687Z,13.88
2022-10-01T15:11:01.102Z,13.85
2022-10-01T15:13:35.114Z,13.86
2022-10-01T15:16:03.250Z,13.78
2022-10-01T15:18:31.566Z,13.73
2022-10-01T15:21:06.523Z,13.68
2022-10-01T15:23:39.182Z,13.63
2022-10-01T15:26:13.808Z,13.61
2022-10-01T15:28:41.885Z,13.57
2022-10-01T15:31:09.888Z,13.53
2022-10-01T15:33:42.855Z,13.50
2022-10-01T15:36:18.605Z,13.48
2022-10-01T15:38:47.765Z,13.45
2022-10-01T15:41:32.514Z,13.44
2022-10-01T15:44:06.628Z,13.43
2022-10-01T15:46:36.030Z,13.44
2022-10-01T15:49:13.050Z,13.44
2022-10-01T15:52:13.028Z,13.45
2022-10-01T15:54:43.087Z,13.41
2022-10-01T15:57:20.972Z,13.40
2022-10-01T15:59:51.524Z,13.38
2022-10-01T16:02:30.621Z,13.39
2022-10-01T16:05:06.785Z,13.34
2022-10-01T16:07:35.523Z,13.28
2022-10-01T16:10:37.331Z,13.30
2022-10-01T16:13:40.704Z,13.32
2022-10-01T16:16:19.900Z,13.29
2022-10-01T16:18:54.087Z,13.22
2022-10-01T16:21:22.874Z,13.18
2022-10-01T16:23:53.423Z,13.16
2022-10-01T16:26:30.065Z,13.10
2022-10-01T16:29:02.831Z,13.04
2022-10-01T16:31:31.392Z,13.01
2022-10-01T16:33:59.302Z,12.99
2022-10-01T16:36:28.389Z,12.96
2022-10-01T16:38:57.499Z,12.97
2022-10-01T16:41:27.021Z,12.96
2022-10-01T16:43:57.173Z,12.96
2022-10-01T16:46:25.093Z,12.98
2022-10-01T16:48:52.862Z,12.97
2022-10-01T16:51:21.963Z,12.99
2022-10-01T16:53:50.344Z,13.00
2022-10-01T16:56:18.097Z,12.97
2022-10-01T16:58:46.190Z,12.97
2022-10-01T17:01:15.669Z,13.00
2022-10-01T17:03:43.778Z,13.02
2022-10-01T17:06:11.644Z,12.99
2022-10-01T17:08:39.416Z,12.94
2022-10-01T17:11:11.903Z,12.92
2022-10-01T17:13:40.578Z,12.90
2022-10-01T17:16:09.235Z,12.86
2022-10-01T17:18:37.027Z,12.84
2022-10-01T17:21:05.729Z,12.84
2022-10-01T17:23:35.553Z,12.88
2022-10-01T17:26:07.686Z,12.95
2022-10-01T17:28:35.828Z,12.98
2022-10-01T17:31:06.780Z,12.95
2022-10-01T17:33:34.722Z,12.91
2022-10-01T17:36:07.208Z,12.91
2022-10-01T17:38:35.410Z,12.91
2022-10-01T17:41:03.872Z,12.89
2022-10-01T17:43:32.048Z,12.82
2022-10-01T17:46:01.367Z,12.81
2022-10-01T17:48:30.043Z,12.82
2022-10-01T17:51:06.069Z,12.80
2022-10-01T17:53:42.265Z,12.76
2022-10-01T17:56:14.646Z,12.75
2022-10-01T17:58:45.726Z,12.76
2022-10-01T18:01:19.751Z,12.76
2022-10-01T18:03:51.945Z,12.75
2022-10-01T18:06:19.700Z,12.80
2022-10-01T18:08:56.211Z,12.81
2022-10-01T18:11:27.898Z,12.79
2022-10-01T18:13:56.002Z,12.77
2022-10-01T18:16:25.048Z,12.74
2022-10-01T18:21:48.786Z,12.66
2022-10-01T18:24:17.163Z,12.65
2022-10-01T18:26:45.876Z,12.65
2022-10-01T18:29:25.424Z,12.64
2022-10-01T18:32:05.027Z,12.61
2022-10-01T18:35:01.662Z,12.58
2022-10-01T18:37:40.388Z,12.57
2022-10-01T18:40:40.498Z,12.62
2022-10-01T18:43:24.483Z,12.68
2022-10-01T18:46:14.349Z,12.67
2022-10-01T18:48:42.162Z,12.64
2022-10-01T18:51:36.638Z,12.62
2022-10-01T18:54:25.970Z,12.55
2022-10-01T18:56:58.767Z,12.52
2022-10-01T18:59:39.861Z,12.49
2022-10-01T19:02:13.467Z,12.46
2022-10-01T19:05:13.663Z,12.42
2022-10-01T19:08:20.937Z,12.39
2022-10-01T19:11:18.179Z,12.51
2022-10-01T19:13:57.183Z,12.51
2022-10-01T19:16:37.143Z,12.56
2022-10-01T19:19:17.877Z,12.58
2022-10-01T19:21:54.820Z,12.58
2022-10-01T19:24:37.824Z,12.52
2022-10-01T19:27:20.846Z,12.50
2022-10-01T19:30:06.567Z,12.58
2022-10-01T19:32:55.654Z,12.55
2022-10-01T19:35:31.931Z,12.48
2022-10-01T19:38:14.933Z,12.45
2022-10-01T19:40:53.624Z,12.45
2022-10-01T19:43:37.997Z,12.44
2022-10-01T19:46:32.787Z,12.49
2022-10-01T19:49:09.563Z,12.48
2022-10-01T19:51:43.895Z,12.44
2022-10-01T19:54:17.085Z,12.46
2022-10-01T19:56:48.747Z,12.50
2022-10-01T19:59:19.983Z,12.51
2022-10-01T20:01:53.818Z,12.52
2022-10-01T20:04:35.501Z,12.58
2022-10-01T20:07:11.435Z,12.58
2022-10-01T20:09:45.858Z,12.57
2022-10-01T20:12:31.998Z,12.48
2022-10-01T20:15:23.129Z,12.43
2022-10-01T20:18:14.595Z,12.44
2022-10-01T20:21:00.010Z,12.38
2022-10-01T20:23:49.334Z,12.36
2022-10-01T20:26:29.829Z,12.37
2022-10-01T20:29:15.712Z,12.46
2022-10-01T20:32:20.217Z,12.43
2022-10-01T20:35:07.454Z,12.30
2022-10-01T20:38:06.942Z,12.24
2022-10-01T20:40:38.577Z,12.26
2022-10-01T20:43:20.695Z,12.32
2022-10-01T20:45:52.083Z,12.32
2022-10-01T20:48:25.364Z,12.29
2022-10-01T20:51:00.779Z,12.32
2022-10-01T20:53:40.701Z,12.44
2022-10-01T20:56:15.960Z,12.52
2022-10-01T20:59:15.400Z,12.48
2022-10-01T21:02:00.650Z,12.48
2022-10-01T21:04:38.836Z,12.59
2022-10-01T21:07:29.713Z,12.65
2022-10-01T21:10:03.417Z,12.66
2022-10-01T21:12:39.681Z,12.69
2022-10-01T21:15:14.006Z,12.72
2022-10-01T21:18:09.710Z,12.75
2022-10-01T21:20:43.584Z,12.76
2022-10-01T21:23:23.489Z,12.75
2022-10-01T21:26:08.135Z,12.73
2022-10-01T21:29:02.648Z,12.74
2022-10-01T21:31:53.519Z,12.76
2022-10-01T21:34:43.117Z,12.73
2022-10-01T21:37:16.546Z,12.71
2022-10-01T21:39:50.556Z,12.71
2022-10-01T21:42:35.209Z,12.75
2022-10-01T21:45:28.651Z,12.74
2022-10-01T21:48:07.382Z,12.73
2022-10-01T21:51:00.225Z,12.72
2022-10-01T21:54:05.752Z,12.68
2022-10-01T21:56:59.721Z,12.69
2022-10-01T21:59:56.257Z,12.69
2022-10-01T22:02:34.953Z,12.67
2022-10-01T22:05:22.684Z,12.62
2022-10-01T22:07:58.647Z,12.60
2022-10-01T22:10:44.726Z,12.62
2022-10-01T22:13:30.821Z,12.62
2022-10-01T22:16:03.252Z,12.64
2022-10-01T22:18:42.502Z,12.66
2022-10-01T22:21:23.155Z,12.62
2022-10-01T22:24:03.963Z,12.59
2022-10-01T22:26:37.406Z,12.60
2022-10-01T22:29:11.116Z,12.58
2022-10-01T22:31:41.323Z,12.53
2022-10-01T22:34:21.834Z,12.50
2022-10-01T22:37:05.484Z,12.47
2022-10-01T22:39:39.685Z,12.40
2022-10-01T22:42:15.002Z,12.35
2022-10-01T22:44:43.301Z,12.31
2022-10-01T22:47:17.108Z,12.34
2022-10-01T22:50:07.084Z,12.36
2022-10-01T22:52:58.593Z,12.38
2022-10-01T22:55:38.632Z,12.44
2022-10-01T22:58:24.931Z,12.43
2022-10-01T23:01:30.343Z,12.41
2022-10-01T23:04:17.175Z,12.36
2022-10-01T23:07:03.050Z,12.37
2022-10-01T23:09:41.559Z,12.44
2022-10-01T23:12:27.420Z,12.46
2022-10-01T23:15:12.617Z,12.45
2022-10-01T23:17:58.564Z,12.43
2022-10-01T23:20:35.474Z,12.40
2022-10-01T23:23:22.167Z,12.41
2022-10-01T23:26:11.968Z,12.45
2022-10-01T23:29:00.721Z,12.41
2022-10-01T23:31:54.258Z,12.40
2022-10-01T23:34:37.978Z,12.36
2022-10-01T23:37:50.054Z,12.38
2022-10-01T23:40:21.210Z,12.39
2022-10-01T23:42:58.591Z,12.37
2022-10-01T23:45:34.242Z,12.31
2022-10-01T23:48:02.105Z,12.27
2022-10-01T23:50:40.004Z,12.28
2022-10-01T23:53:14.461Z,12.29
2022-10-01T23:56:07.156Z,12.29
2022-10-01T23:58:53.249Z,12.29
